createdAt,value
2018-09-13T00:02:00.669Z,101828.77
2018-09-13T00:04:28.417Z,101821.97
2018-09-13T00:06:57.329Z,101823.06
2018-09-13T00:09:25.642Z,101823.57
2018-09-13T00:11:53.963Z,101828.73
2018-09-13T00:14:22.276Z,101832.93
2018-09-13T00:16:50.020Z,101836.52
2018-09-13T00:19:18.342Z,101834.60
2018-09-13T00:21:46.673Z,101832.84
2018-09-13T00:24:14.992Z,101837.92
2018-09-13T00:26:43.905Z,101827.14
2018-09-13T00:29:11.645Z,101831.00
2018-09-13T00:31:40.548Z,101836.75
2018-09-13T00:34:08.877Z,101838.67
2018-09-13T00:36:37.194Z,101837.83
2018-09-13T00:39:04.947Z,101839.37
2018-09-13T00:41:33.268Z,101841.39
2018-09-13T00:44:01.585Z,101843.16
2018-09-13T00:46:30.495Z,101846.01
2018-09-13T00:48:58.811Z,101848.64
2018-09-13T00:51:27.140Z,101851.02
2018-09-13T00:53:54.884Z,101849.77
2018-09-13T00:56:23.208Z,101846.91
2018-09-13T00:58:51.539Z,101847.43
2018-09-13T01:01:20.433Z,101850.80
2018-09-13T01:03:48.761Z,101850.92
2018-09-13T01:06:17.085Z,101855.03
2018-09-13T01:08:45.402Z,101861.03
2018-09-13T01:11:13.733Z,101859.52
2018-09-13T01:13:41.473Z,101858.17
2018-09-13T01:16:09.934Z,101864.72
2018-09-13T01:18:38.124Z,101865.14
2018-09-13T01:21:06.444Z,101865.42
2018-09-13T01:23:34.845Z,101857.54
2018-09-13T01:26:03.665Z,101854.78
2018-09-13T01:28:31.976Z,101855.39
2018-09-13T01:30:59.721Z,101854.81
2018-09-13T01:33:28.615Z,101856.89
2018-09-13T01:35:56.940Z,101857.66
2018-09-13T01:38:25.271Z,101854.59
2018-09-13T01:40:53.594Z,101856.63
2018-09-13T01:43:21.922Z,101855.00
2018-09-13T01:45:50.249Z,101855.73
2018-09-13T01:48:18.556Z,101860.06
2018-09-13T01:50:46.882Z,101863.09
2018-09-13T01:53:14.615Z,101864.92
2018-09-13T01:55:42.933Z,101862.99
2018-09-13T01:58:11.260Z,101867.41
2018-09-13T02:00:40.150Z,101869.88
2018-09-13T02:03:07.887Z,101872.88
2018-09-13T02:05:36.781Z,101862.14
2018-09-13T02:08:05.116Z,101859.98
2018-09-13T02:10:32.844Z,101861.72
2018-09-13T02:13:01.181Z,101856.22
2018-09-13T02:15:30.082Z,101857.77
2018-09-13T02:17:57.830Z,101861.85
2018-09-13T02:20:26.405Z,101864.58
2018-09-13T02:22:55.061Z,101863.22
2018-09-13T02:25:23.384Z,101863.72
2018-09-13T02:27:51.713Z,101865.44
2018-09-13T02:30:19.462Z,101870.51
2018-09-13T02:32:48.362Z,101874.35
2018-09-13T02:35:16.679Z,101878.23
2018-09-13T02:37:44.997Z,101870.48
2018-09-13T02:40:13.311Z,101867.00
2018-09-13T02:42:41.643Z,101864.34
2018-09-13T02:45:09.962Z,101871.09
2018-09-13T02:47:38.293Z,101876.33
2018-09-13T02:50:06.614Z,101879.84
2018-09-13T02:52:34.931Z,101874.27
2018-09-13T02:55:03.256Z,101874.42
2018-09-13T02:57:30.990Z,101880.74
2018-09-13T02:59:59.883Z,101881.73
2018-09-13T03:02:28.207Z,101878.34
2018-09-13T03:04:56.534Z,101873.64
2018-09-13T03:07:24.867Z,101875.49
2018-09-13T03:09:52.597Z,101879.75
2018-09-13T03:12:21.502Z,101880.62
2018-09-13T03:14:49.441Z,101875.62
2018-09-13T03:17:18.152Z,101880.29
2018-09-13T03:19:46.479Z,101883.77
2018-09-13T03:22:15.390Z,101887.14
2018-09-13T03:24:43.130Z,101889.19
2018-09-13T03:27:12.045Z,101894.70
2018-09-13T03:29:39.767Z,101893.36
2018-09-13T03:32:07.499Z,101895.22
2018-09-13T03:34:36.397Z,101894.83
2018-09-13T03:37:04.716Z,101900.69
2018-09-13T03:39:33.027Z,101898.27
2018-09-13T03:42:01.392Z,101896.95
2018-09-13T03:44:29.088Z,101898.91
2018-09-13T03:46:57.420Z,101900.97
2018-09-13T03:49:25.862Z,101898.95
2018-09-13T03:51:54.074Z,101902.02
2018-09-13T03:54:22.971Z,101900.91
2018-09-13T03:56:50.730Z,101906.42
2018-09-13T03:59:19.049Z,101907.61
2018-09-13T04:01:47.959Z,101903.06
2018-09-13T04:04:16.272Z,101907.81
2018-09-13T04:06:44.030Z,101914.02
2018-09-13T04:09:12.988Z,101919.56
2018-09-13T04:11:41.269Z,101925.48
2018-09-13T04:14:09.595Z,101924.72
2018-09-13T04:16:37.948Z,101926.50
2018-09-13T04:19:05.684Z,101918.22
2018-09-13T04:21:34.614Z,101914.67
2018-09-13T04:24:02.333Z,101915.22
2018-09-13T04:26:31.241Z,101922.38
2018-09-13T04:28:59.551Z,101924.01
2018-09-13T04:31:27.294Z,101920.28
2018-09-13T04:33:55.618Z,101924.36
2018-09-13T04:36:24.531Z,101925.23
2018-09-13T04:38:52.849Z,101924.91
2018-09-13T04:41:21.405Z,101925.94
2018-09-13T04:43:49.231Z,101930.72
2018-09-13T04:46:17.841Z,101930.97
2018-09-13T04:48:46.196Z,101927.19
2018-09-13T04:51:14.522Z,101923.11
2018-09-13T04:53:42.323Z,101929.86
2018-09-13T04:56:11.174Z,101938.86
2018-09-13T04:58:39.494Z,101938.58
2018-09-13T05:01:07.239Z,101936.69
2018-09-13T05:03:36.139Z,101938.02
2018-09-13T05:06:03.880Z,101935.47
2018-09-13T05:08:32.203Z,101937.44
2018-09-13T05:11:01.110Z,101932.31
2018-09-13T05:13:28.853Z,101935.08
2018-09-13T05:15:57.767Z,101938.38
2018-09-13T05:18:26.085Z,101945.98
2018-09-13T05:20:54.503Z,101952.78
2018-09-13T05:23:22.839Z,101958.14
2018-09-13T05:25:50.584Z,101960.00
2018-09-13T05:28:19.487Z,101961.22
2018-09-13T05:30:47.818Z,101962.66
2018-09-13T05:33:15.562Z,101964.69
2018-09-13T05:35:43.898Z,101968.69
2018-09-13T05:38:12.796Z,101970.45
2018-09-13T05:40:41.113Z,101969.25
2018-09-13T05:43:08.861Z,101972.33
2018-09-13T05:45:37.224Z,101980.74
2018-09-13T05:48:05.513Z,101981.50
2018-09-13T05:50:34.418Z,101982.45
2018-09-13T05:53:02.748Z,101984.52
2018-09-13T05:55:30.495Z,101983.81
2018-09-13T05:57:58.855Z,101990.70
2018-09-13T06:00:27.798Z,101992.70
2018-09-13T06:02:56.127Z,101984.69
2018-09-13T06:05:23.876Z,101994.11
2018-09-13T06:07:52.484Z,101995.13
2018-09-13T06:10:21.331Z,102002.72
2018-09-13T06:12:49.448Z,101998.56
2018-09-13T06:15:18.143Z,101997.55
2018-09-13T06:17:46.353Z,102000.46
2018-09-13T06:20:14.686Z,102004.34
2018-09-13T06:22:43.019Z,102001.50
2018-09-13T06:25:10.764Z,102013.22
2018-09-13T06:27:39.686Z,102013.00
2018-09-13T06:30:08.025Z,102012.39
2018-09-13T06:32:36.367Z,102015.68
2018-09-13T06:35:05.609Z,102011.84
2018-09-13T06:37:33.420Z,102016.37
2018-09-13T06:40:02.347Z,102018.03
2018-09-13T06:42:30.749Z,102018.31
2018-09-13T06:44:59.002Z,102015.78
2018-09-13T06:47:29.471Z,102009.03
2018-09-13T06:49:55.080Z,102005.87
2018-09-13T06:52:24.040Z,102008.16
2018-09-13T06:54:51.770Z,102007.52
2018-09-13T06:57:20.736Z,102009.64
2018-09-13T06:59:48.643Z,102018.02
2018-09-13T07:02:18.045Z,102012.91
2018-09-13T07:04:46.343Z,102013.59
2018-09-13T07:07:14.078Z,102008.55
2018-09-13T07:09:42.408Z,102009.94
2018-09-13T07:12:11.311Z,102010.73
2018-09-13T07:14:39.646Z,102017.31
2018-09-13T07:17:07.384Z,102019.83
2018-09-13T07:19:36.293Z,102023.55
2018-09-13T07:22:04.632Z,102032.34
2018-09-13T07:24:32.374Z,102035.03
2018-09-13T07:27:01.292Z,102033.36
2018-09-13T07:29:29.053Z,102040.39
2018-09-13T07:31:57.961Z,102038.95
2018-09-13T07:34:26.314Z,102039.23
2018-09-13T07:36:54.122Z,102044.38
2018-09-13T07:39:22.976Z,102048.39
2018-09-13T07:41:50.721Z,102045.47
2018-09-13T07:44:19.061Z,102048.67
2018-09-13T07:46:47.967Z,102048.56
2018-09-13T07:49:16.670Z,102050.78
2018-09-13T07:51:44.926Z,102048.89
2018-09-13T07:54:13.243Z,102055.54
2018-09-13T07:56:41.584Z,102054.38
2018-09-13T07:59:10.469Z,102049.25
2018-09-13T08:01:40.937Z,102056.40
2018-09-13T08:04:09.336Z,102059.48
2018-09-13T08:06:35.975Z,102062.86
2018-09-13T08:09:04.828Z,102058.19
2018-09-13T08:11:33.188Z,102064.20
2018-09-13T08:14:00.930Z,102069.18
2018-09-13T08:16:30.044Z,102064.44
2018-09-13T08:18:59.348Z,102066.61
2018-09-13T08:21:28.024Z,102067.52
2018-09-13T08:23:55.784Z,102069.05
2018-09-13T08:26:24.996Z,102070.77
2018-09-13T08:28:53.346Z,102075.00
2018-09-13T08:31:21.711Z,102070.30
2018-09-13T08:33:50.031Z,102069.35
2018-09-13T08:36:19.384Z,102068.02
2018-09-13T08:38:47.746Z,102065.73
2018-09-13T08:41:16.349Z,102065.92
2018-09-13T08:43:44.656Z,102068.55
2018-09-13T08:46:12.406Z,102066.20
2018-09-13T08:48:44.713Z,102064.63
2018-09-13T08:51:09.666Z,102063.81
2018-09-13T08:53:37.405Z,102065.48
2018-09-13T08:56:05.737Z,102065.55
2018-09-13T08:58:34.647Z,102068.64
2018-09-13T09:01:03.203Z,102069.87
2018-09-13T09:03:33.811Z,102070.95
2018-09-13T09:06:02.177Z,102068.01
2018-09-13T09:08:32.135Z,102070.27
2018-09-13T09:11:01.888Z,102068.25
2018-09-13T09:16:24.760Z,102074.10
2018-09-13T09:18:53.073Z,102077.95
2018-09-13T09:21:21.492Z,102078.40
2018-09-13T09:23:50.296Z,102073.08
2018-09-13T09:26:18.796Z,102073.50
2018-09-13T09:28:47.143Z,102071.84
2018-09-13T09:31:15.672Z,102073.30
2018-09-13T09:33:53.596Z,102073.98
2018-09-13T09:36:21.897Z,102067.99
2018-09-13T09:38:49.695Z,102070.73
2018-09-13T09:41:18.747Z,102069.84
2018-09-13T09:43:51.601Z,102065.71
2018-09-13T09:46:16.029Z,102070.34
2018-09-13T09:48:44.659Z,102066.05
2018-09-13T09:51:13.229Z,102059.88
2018-09-13T09:53:41.550Z,102065.27
2018-09-13T09:56:09.889Z,102062.27
2018-09-13T09:58:37.621Z,102062.25
2018-09-13T10:01:06.526Z,102059.83
2018-09-13T10:03:36.991Z,102061.56
2018-09-13T10:06:03.219Z,102061.16
2018-09-13T10:08:31.784Z,102060.68
2018-09-13T10:11:00.196Z,102057.69
2018-09-13T10:13:28.870Z,102053.33
2018-09-13T10:15:57.751Z,102053.28
2018-09-13T10:18:29.830Z,102053.50
2018-09-13T10:20:59.799Z,102049.73
2018-09-13T10:23:33.937Z,102046.58
2018-09-13T10:26:02.225Z,102050.91
2018-09-13T10:28:32.348Z,102053.29
2018-09-13T10:31:01.709Z,102048.24
2018-09-13T10:33:36.077Z,102051.03
2018-09-13T10:36:04.965Z,102048.16
2018-09-13T10:38:40.165Z,102041.96
2018-09-13T10:41:09.002Z,102042.06
2018-09-13T10:43:38.606Z,102041.76
2018-09-13T10:46:12.806Z,102041.28
2018-09-13T10:48:41.711Z,102034.82
2018-09-13T10:51:10.042Z,102029.43
2018-09-13T10:53:38.706Z,102031.82
2018-09-13T10:56:07.404Z,102044.87
2018-09-13T10:58:35.733Z,102034.77
2018-09-13T11:01:04.059Z,102026.55
2018-09-13T11:03:32.915Z,102027.14
2018-09-13T11:06:01.221Z,102026.12
2018-09-13T11:08:30.124Z,102026.44
2018-09-13T11:10:58.542Z,102027.47
2018-09-13T11:13:26.801Z,102028.09
2018-09-13T11:15:55.457Z,102029.16
2018-09-13T11:18:23.211Z,102032.09
2018-09-13T11:20:52.119Z,102034.86
2018-09-13T11:23:19.861Z,102028.42
2018-09-13T11:25:49.087Z,102033.17
2018-09-13T11:28:17.429Z,102033.30
2018-09-13T11:30:45.766Z,102031.05
2018-09-13T11:33:14.087Z,102032.67
2018-09-13T11:35:42.452Z,102035.05
2018-09-13T11:38:10.778Z,102030.39
2018-09-13T11:40:38.681Z,102030.11
2018-09-13T11:43:08.674Z,102023.36
2018-09-13T11:45:37.524Z,102022.78
2018-09-13T11:48:05.887Z,102024.89
2018-09-13T11:50:34.998Z,102026.11
2018-09-13T11:53:03.335Z,102025.12
2018-09-13T11:55:31.090Z,102024.05
2018-09-13T11:58:00.975Z,102025.79
2018-09-13T12:00:29.310Z,102026.89
2018-09-13T12:02:57.632Z,102021.59
2018-09-13T12:05:25.389Z,102017.95
2018-09-13T12:07:54.312Z,102017.97
2018-09-13T12:10:22.645Z,102011.20
2018-09-13T12:12:50.950Z,102002.55
2018-09-13T12:15:19.524Z,102003.44
2018-09-13T12:17:48.245Z,102009.56
2018-09-13T12:20:15.973Z,102013.33
2018-09-13T12:22:44.365Z,102001.82
2018-09-13T12:25:12.098Z,102003.73
2018-09-13T12:27:41.007Z,102010.56
2018-09-13T12:30:09.340Z,101997.62
2018-09-13T12:32:37.722Z,101998.75
2018-09-13T12:35:06.036Z,101994.31
2018-09-13T12:37:34.409Z,101993.73
2018-09-13T12:40:02.742Z,101995.98
2018-09-13T12:42:31.078Z,101995.73
2018-09-13T12:44:58.832Z,101992.42
2018-09-13T12:47:27.176Z,101988.86
2018-09-13T12:49:55.600Z,101987.98
2018-09-13T12:52:23.974Z,101990.11
2018-09-13T12:54:53.062Z,101995.75
2018-09-13T12:57:21.878Z,101993.25
2018-09-13T12:59:49.979Z,101984.05
2018-09-13T13:02:18.284Z,101981.83
2018-09-13T13:04:46.630Z,101975.98
2018-09-13T13:07:14.954Z,101971.27
2018-09-13T13:09:42.710Z,101975.36
2018-09-13T13:12:11.633Z,101973.84
2018-09-13T13:17:39.520Z,101967.63
2018-09-13T13:20:07.250Z,101976.45
2018-09-13T13:22:36.154Z,101973.42
2018-09-13T13:59:31.055Z,101959.55
2018-09-13T14:02:01.056Z,101958.81
2018-09-13T14:04:29.373Z,101954.52
2018-09-13T14:06:57.713Z,101950.93
2018-09-13T14:09:26.046Z,101953.79
2018-09-13T14:11:54.851Z,101948.60
2018-09-13T14:14:23.175Z,101944.94
2018-09-13T14:16:51.532Z,101945.97
2018-09-13T14:19:19.935Z,101946.67
2018-09-13T14:21:48.221Z,101940.54
2018-09-13T14:24:16.062Z,101940.38
2018-09-13T14:26:45.004Z,101944.20
2018-09-13T14:29:13.313Z,101936.33
2018-09-13T14:31:41.692Z,101932.78
2018-09-13T14:34:09.454Z,101935.73
2018-09-13T14:36:38.602Z,101933.41
2018-09-13T14:39:06.116Z,101931.76
2018-09-13T14:41:35.024Z,101933.47
2018-09-13T14:44:03.127Z,101926.14
2018-09-13T14:46:32.055Z,101926.59
2018-09-13T14:49:01.127Z,101925.30
2018-09-13T14:51:30.502Z,101926.59
2018-09-13T14:53:59.509Z,101923.62
2018-09-13T14:56:28.408Z,101917.58
2018-09-13T14:58:58.470Z,101919.92
2018-09-13T15:01:27.168Z,101912.72
2018-09-13T15:03:55.496Z,101915.63
2018-09-13T15:06:23.819Z,101913.44
2018-09-13T15:08:52.146Z,101909.70
2018-09-13T15:11:20.728Z,101904.23
2018-09-13T15:13:48.827Z,101904.10
2018-09-13T15:16:17.152Z,101907.70
2018-09-13T15:18:45.714Z,101903.97
2018-09-13T15:21:15.461Z,101899.88
2018-09-13T15:23:44.636Z,101899.70
2018-09-13T15:26:12.976Z,101897.56
2018-09-13T15:28:41.336Z,101898.37
2018-09-13T15:31:09.972Z,101899.18
2018-09-13T15:33:38.040Z,101904.00
2018-09-13T15:36:07.365Z,101896.20
2018-09-13T15:38:34.390Z,101893.92
2018-09-13T15:41:03.282Z,101893.05
2018-09-13T15:43:37.770Z,101884.11
2018-09-13T15:46:06.128Z,101881.33
2018-09-13T15:48:36.691Z,101878.66
2018-09-13T15:51:05.011Z,101879.41
2018-09-13T15:53:33.837Z,101877.50
2018-09-13T15:56:01.590Z,101877.55
2018-09-13T15:58:31.617Z,101874.66
2018-09-13T16:00:59.948Z,101875.23
2018-09-13T16:03:28.691Z,101879.64
2018-09-13T16:05:57.094Z,101880.60
2018-09-13T16:08:25.756Z,101883.59
2018-09-13T16:10:54.098Z,101883.84
2018-09-13T16:13:22.457Z,101880.58
2018-09-13T16:15:50.788Z,101879.11
2018-09-13T16:18:19.121Z,101881.27
2018-09-13T16:20:47.529Z,101882.95
2018-09-13T16:23:16.247Z,101883.53
2018-09-13T16:25:44.616Z,101879.80
2018-09-13T16:28:12.998Z,101886.92
2018-09-13T16:30:41.327Z,101887.63
2018-09-13T16:33:09.087Z,101887.91
2018-09-13T16:35:37.982Z,101885.88
2018-09-13T16:38:06.369Z,101886.22
2018-09-13T16:40:34.719Z,101882.67
2018-09-13T16:43:08.067Z,101878.33
2018-09-13T16:45:36.448Z,101875.27
2018-09-13T16:48:05.342Z,101876.95
2018-09-13T16:50:33.889Z,101871.69
2018-09-13T16:53:02.016Z,101872.18
2018-09-13T16:55:30.341Z,101878.38
2018-09-13T16:57:58.828Z,101877.14
2018-09-13T17:00:27.595Z,101876.55
2018-09-13T17:02:56.111Z,101874.97
2018-09-13T17:05:24.459Z,101876.63
2018-09-13T17:07:53.180Z,101880.16
2018-09-13T17:10:21.589Z,101881.12
2018-09-13T17:12:49.936Z,101879.29
2018-09-13T17:15:18.350Z,101885.19
2018-09-13T17:17:46.688Z,101884.02
2018-09-13T17:20:15.130Z,101880.75
2018-09-13T17:22:43.566Z,101888.13
2018-09-13T17:25:12.136Z,101890.05
2018-09-13T17:27:40.589Z,101890.63
2018-09-13T17:30:09.064Z,101890.29
2018-09-13T17:32:37.696Z,101893.97
2018-09-13T17:35:06.206Z,101895.63
2018-09-13T17:37:34.629Z,101898.86
2018-09-13T17:40:03.221Z,101899.84
2018-09-13T17:42:31.602Z,101897.27
2018-09-13T17:45:00.280Z,101901.88
2018-09-13T17:47:28.676Z,101903.89
2018-09-13T17:49:57.116Z,101909.05
2018-09-13T17:52:25.847Z,101914.77
2018-09-13T17:54:54.234Z,101915.01
2018-09-13T17:57:22.565Z,101915.48
2018-09-13T17:59:51.008Z,101909.84
2018-09-13T18:02:19.380Z,101914.77
2018-09-13T18:04:47.724Z,101908.91
2018-09-13T18:07:16.467Z,101908.31
2018-09-13T18:09:44.817Z,101908.63
2018-09-13T18:12:13.299Z,101911.66
2018-09-13T18:14:41.703Z,101911.88
2018-09-13T18:17:10.131Z,101913.39
2018-09-13T18:19:38.476Z,101909.06
2018-09-13T18:22:06.863Z,101911.88
2018-09-13T18:24:35.243Z,101908.25
2018-09-13T18:27:04.028Z,101909.59
2018-09-13T18:29:32.462Z,101908.91
2018-09-13T18:32:00.838Z,101912.33
2018-09-13T18:34:29.680Z,101912.94
2018-09-13T18:36:57.449Z,101915.50
2018-09-13T18:39:26.364Z,101915.80
2018-09-13T18:41:54.703Z,101914.27
2018-09-13T18:44:22.552Z,101914.59
2018-09-13T18:46:50.882Z,101913.92
2018-09-13T18:49:19.210Z,101913.47
2018-09-13T18:51:47.555Z,101913.80
2018-09-13T18:54:16.499Z,101916.46
2018-09-13T18:56:44.821Z,101918.82
2018-09-13T18:59:13.179Z,101917.24
2018-09-13T19:01:42.903Z,101922.27
2018-09-13T19:04:11.236Z,101918.29
2018-09-13T19:06:39.589Z,101918.59
2018-09-13T19:09:07.938Z,101921.83
2018-09-13T19:11:36.337Z,101919.45
2018-09-13T19:14:04.646Z,101917.89
2018-09-13T19:16:34.011Z,101916.66
2018-09-13T19:19:01.427Z,101914.81
2018-09-13T19:21:29.796Z,101917.63
2018-09-13T19:23:58.290Z,101917.20
2018-09-13T19:26:26.663Z,101920.30
2018-09-13T19:28:57.228Z,101921.92
2018-09-13T19:31:26.909Z,101915.34
2018-09-13T19:33:59.142Z,101918.32
2018-09-13T19:36:29.497Z,101922.95
2018-09-13T19:39:03.531Z,101923.58
2018-09-13T19:41:35.083Z,101932.22
2018-09-13T19:44:05.127Z,101930.60
2018-09-13T19:46:36.356Z,101927.45
2018-09-13T19:52:07.630Z,101926.13
2018-09-13T19:54:45.366Z,101925.94
2018-09-13T19:57:15.581Z,101923.01
2018-09-13T19:59:47.383Z,101926.98
2018-09-13T20:02:16.787Z,101925.17
2018-09-13T20:07:33.149Z,101931.04
2018-09-13T20:10:02.822Z,101927.59
2018-09-13T20:12:31.208Z,101931.53
2018-09-13T20:15:03.792Z,101933.70
2018-09-13T20:17:32.276Z,101931.14
2018-09-13T20:20:01.166Z,101931.69
2018-09-13T20:22:30.210Z,101936.28
2018-09-13T20:25:03.646Z,101938.51
2018-09-13T20:27:33.620Z,101936.36
2018-09-13T20:30:02.189Z,101943.97
2018-09-13T20:32:30.362Z,101938.23
2018-09-13T20:34:58.688Z,101940.81
2018-09-13T20:37:26.478Z,101937.67
2018-09-13T20:39:55.410Z,101936.00
2018-09-13T20:42:23.744Z,101941.25
2018-09-13T20:44:51.508Z,101938.55
2018-09-13T20:47:19.838Z,101938.17
2018-09-13T20:49:48.749Z,101939.95
2018-09-13T20:52:17.072Z,101940.84
2018-09-13T20:54:45.489Z,101938.34
2018-09-13T20:57:13.245Z,101941.96
2018-09-13T20:59:43.141Z,101941.73
2018-09-13T21:02:10.882Z,101942.51
2018-09-13T21:04:39.796Z,101941.47
2018-09-13T21:07:08.165Z,101938.48
2018-09-13T21:09:36.528Z,101937.38
2018-09-13T21:12:04.907Z,101939.70
2018-09-13T21:14:33.225Z,101937.03
2018-09-13T21:17:01.623Z,101935.14
2018-09-13T21:19:29.928Z,101938.36
2018-09-13T21:21:58.285Z,101932.70
2018-09-13T21:24:26.654Z,101930.88
2018-09-13T21:26:54.936Z,101930.75
2018-09-13T21:29:23.321Z,101928.52
2018-09-13T21:31:51.772Z,101930.84
2018-09-13T21:34:20.097Z,101929.84
2018-09-13T21:36:47.849Z,101932.36
2018-09-13T21:39:16.199Z,101929.89
2018-09-13T21:41:44.521Z,101935.45
2018-09-13T21:44:13.446Z,101930.60
2018-09-13T21:46:41.783Z,101930.20
2018-09-13T21:49:10.105Z,101932.18
2018-09-13T21:51:38.439Z,101923.85
2018-09-13T21:54:06.178Z,101928.47
2018-09-13T21:56:34.510Z,101929.73
2018-09-13T21:59:02.829Z,101922.61
2018-09-13T22:01:31.735Z,101927.03
2018-09-13T22:03:59.472Z,101923.97
2018-09-13T22:06:28.381Z,101927.59
2018-09-13T22:08:56.700Z,101922.23
2018-09-13T22:11:25.093Z,101920.84
2018-09-13T22:13:53.352Z,101927.30
2018-09-13T22:16:21.682Z,101927.94
2018-09-13T22:18:50.039Z,101924.42
2018-09-13T22:21:18.415Z,101919.29
2018-09-13T22:23:46.115Z,101916.65
2018-09-13T22:26:15.015Z,101915.69
2018-09-13T22:28:43.344Z,101920.88
2018-09-13T22:31:11.218Z,101922.00
2018-09-13T22:33:40.006Z,101921.14
2018-09-13T22:36:08.328Z,101917.70
2018-09-13T22:38:36.658Z,101920.21
2018-09-13T22:41:04.393Z,101923.88
2018-09-13T22:43:33.290Z,101921.37
2018-09-13T22:46:01.626Z,101918.48
2018-09-13T22:48:29.936Z,101918.53
2018-09-13T22:50:57.684Z,101920.51
2018-09-13T22:53:26.084Z,101918.80
2018-09-13T22:55:54.919Z,101921.48
2018-09-13T22:58:22.659Z,101920.81
2018-09-13T23:00:50.980Z,101916.39
2018-09-13T23:03:19.876Z,101919.46
2018-09-13T23:05:47.626Z,101921.14
2018-09-13T23:08:15.941Z,101917.05
2018-09-13T23:10:44.849Z,101914.64
2018-09-13T23:13:13.168Z,101912.72
2018-09-13T23:15:41.484Z,101912.69
2018-09-13T23:18:09.805Z,101915.17
2018-09-13T23:20:37.554Z,101914.48
2018-09-13T23:23:05.873Z,101910.05
2018-09-13T23:25:34.783Z,101911.27
2018-09-13T23:28:03.116Z,101903.45
2018-09-13T23:30:31.438Z,101905.70
2018-09-13T23:32:59.770Z,101906.62
2018-09-13T23:35:28.085Z,101902.48
2018-09-13T23:37:56.412Z,101904.91
2018-09-13T23:40:24.292Z,101905.06
2018-09-13T23:42:53.314Z,101902.92
2018-09-13T23:45:20.863Z,101898.30
2018-09-13T23:47:49.173Z,101898.69
2018-09-13T23:50:17.490Z,101895.38
2018-09-13T23:52:45.818Z,101898.95
2018-09-13T23:55:14.725Z,101896.95
2018-09-13T23:57:43.059Z,101895.17
